Sultan Atasoy — TCYG9 — position and weather

sailwx.info

Track history (hours):
 
Tides and Currents Weather Stations Pressure Air Temp Water Temp Dewpoint Dewpoint Depression Visibility Wind Speed Wind Dir Waves Ship Positions

Sultan Atasoy

Last reported at 2014-Nov-18 12:33 UTC. Time now 2014-Nov-23 07:30 UTC.
Position N 41°24' E 029°38'.

Length 109 m; draft 4.2 m.

Type: Ship. MMSI: 271040963.

Date/timePositionNaut miles runAvg speedWind from/ knotsBaromVisibWave heightAir tempDewpointWater temp
2014-Nov-18 12:33N 41°24' E 029°38'1211.8
2014-Nov-18 11:33N 41°19' E 029°23'  
2014-Nov-12 23:32N 40°52' E 028°52'1110.8
2014-Nov-12 22:33N 40°50' E 029°05'6 5.9
2014-Nov-12 21:33N 40°53' E 029°12'0 0.0
2014-Nov-12 20:31N 40°53' E 029°12'0 0.0
2014-Nov-12 19:31N 40°53' E 029°12'0 0.0
2014-Nov-12 18:31N 40°53' E 029°12'0 0.0
2014-Nov-12 17:31N 40°53' E 029°12'0 0.0
2014-Nov-12 16:31N 40°53' E 029°12'0 0.0
2014-Nov-12 15:31N 40°53' E 029°12'0 0.0
2014-Nov-12 14:31N 40°53' E 029°12'0 0.0
2014-Nov-12 13:25N 40°53' E 029°12'0 0.0
2014-Nov-12 12:19N 40°53' E 029°12'0 0.0
2014-Nov-12 11:31N 40°53' E 029°12'0 0.0
2014-Nov-12 10:31N 40°53' E 029°12'0 0.0
2014-Nov-12 09:31N 40°53' E 029°12'0 0.0
2014-Nov-12 08:31N 40°53' E 029°12'0 0.0
2014-Nov-12 07:31N 40°53' E 029°12'0 0.0
2014-Nov-12 06:31N 40°53' E 029°12'0 0.0
2014-Nov-12 05:33N 40°53' E 029°12'2 1.7
2014-Nov-12 04:33N 40°52' E 029°11'6 6.0
2014-Nov-12 03:33N 40°49' E 029°04'7 7.5
2014-Nov-12 02:33N 40°48' E 028°54'1110.9
2014-Nov-12 01:32N 40°48' E 028°39'  
2014-Nov-08 20:03N 40°53' E 028°36'611.0
2014-Nov-08 19:29N 40°53' E 028°44'1111.2
2014-Nov-08 18:33N 40°51' E 028°57'1010.0
2014-Nov-08 17:31N 40°52' E 029°11'1 1.4
2014-Nov-08 16:32N 40°53' E 029°12'0 0.0
2014-Nov-08 15:26N 40°53' E 029°12'0 0.0
2014-Nov-08 14:32N 40°53' E 029°12'0 0.0
2014-Nov-08 13:32N 40°53' E 029°12'  
Track history (hours):
 
Tides and Currents Weather Stations Pressure Air Temp Water Temp Dewpoint Dewpoint Depression Visibility Wind Speed Wind Dir Waves Ship Positions

Sultan Atasoy

Last reported at 2014-Nov-18 12:33 UTC. Time now 2014-Nov-23 07:30 UTC.
Position N 41°24' E 029°38'.

Length 109 m; draft 4.2 m.

Type: Ship. MMSI: 271040963.

Date/timePositionNaut miles runAvg speedWind from/ knotsBaromVisibWave heightAir tempDewpointWater temp
2014-Nov-18 12:33N 41°24' E 029°38'1211.8
2014-Nov-18 11:33N 41°19' E 029°23'  
2014-Nov-12 23:32N 40°52' E 028°52'1110.8
2014-Nov-12 22:33N 40°50' E 029°05'6 5.9
2014-Nov-12 21:33N 40°53' E 029°12'0 0.0
2014-Nov-12 20:31N 40°53' E 029°12'0 0.0
2014-Nov-12 19:31N 40°53' E 029°12'0 0.0
2014-Nov-12 18:31N 40°53' E 029°12'0 0.0
2014-Nov-12 17:31N 40°53' E 029°12'0 0.0
2014-Nov-12 16:31N 40°53' E 029°12'0 0.0
2014-Nov-12 15:31N 40°53' E 029°12'0 0.0
2014-Nov-12 14:31N 40°53' E 029°12'0 0.0
2014-Nov-12 13:25N 40°53' E 029°12'0 0.0
2014-Nov-12 12:19N 40°53' E 029°12'0 0.0
2014-Nov-12 11:31N 40°53' E 029°12'0 0.0
2014-Nov-12 10:31N 40°53' E 029°12'0 0.0
2014-Nov-12 09:31N 40°53' E 029°12'0 0.0
2014-Nov-12 08:31N 40°53' E 029°12'0 0.0
2014-Nov-12 07:31N 40°53' E 029°12'0 0.0
2014-Nov-12 06:31N 40°53' E 029°12'0 0.0
2014-Nov-12 05:33N 40°53' E 029°12'2 1.7
2014-Nov-12 04:33N 40°52' E 029°11'6 6.0
2014-Nov-12 03:33N 40°49' E 029°04'7 7.5
2014-Nov-12 02:33N 40°48' E 028°54'1110.9
2014-Nov-12 01:32N 40°48' E 028°39'  
2014-Nov-08 20:03N 40°53' E 028°36'611.0
2014-Nov-08 19:29N 40°53' E 028°44'1111.2
2014-Nov-08 18:33N 40°51' E 028°57'1010.0
2014-Nov-08 17:31N 40°52' E 029°11'1 1.4
2014-Nov-08 16:32N 40°53' E 029°12'0 0.0
2014-Nov-08 15:26N 40°53' E 029°12'0 0.0
2014-Nov-08 14:32N 40°53' E 029°12'0 0.0
2014-Nov-08 13:32N 40°53' E 029°12'  

Dump ship's entire track history